sensor_id;sensor_type;location;lat;lon;timestamp;pressure;altitude;pressure_sealevel;temperature;humidity
41712;BME280;27399;51.516;13.670;2023-04-09T00:01:07;101538.00;;;5.46;73.79
41712;BME280;27399;51.516;13.670;2023-04-09T00:03:35;101537.22;;;5.49;74.01
41712;BME280;27399;51.516;13.670;2023-04-09T00:06:02;101538.66;;;5.37;74.25
41712;BME280;27399;51.516;13.670;2023-04-09T00:08:28;101536.97;;;5.41;74.32
41712;BME280;27399;51.516;13.670;2023-04-09T00:10:53;101534.34;;;5.41;74.04
41712;BME280;27399;51.516;13.670;2023-04-09T00:13:20;101538.44;;;5.31;74.55
41712;BME280;27399;51.516;13.670;2023-04-09T00:15:46;101543.34;;;5.19;74.54
41712;BME280;27399;51.516;13.670;2023-04-09T00:18:13;101535.41;;;5.19;74.27
41712;BME280;27399;51.516;13.670;2023-04-09T00:20:38;101529.66;;;5.32;74.22
41712;BME280;27399;51.516;13.670;2023-04-09T00:23:04;101538.66;;;5.37;73.52
41712;BME280;27399;51.516;13.670;2023-04-09T00:25:30;101543.84;;;5.34;73.88
41712;BME280;27399;51.516;13.670;2023-04-09T00:27:56;101544.78;;;5.67;72.85
41712;BME280;27399;51.516;13.670;2023-04-09T00:30:22;101552.25;;;5.50;73.10
41712;BME280;27399;51.516;13.670;2023-04-09T00:32:48;101547.66;;;5.44;73.08
41712;BME280;27399;51.516;13.670;2023-04-09T00:35:14;101545.59;;;5.34;73.28
41712;BME280;27399;51.516;13.670;2023-04-09T00:37:42;101545.34;;;5.55;73.10
41712;BME280;27399;51.516;13.670;2023-04-09T00:40:07;101544.22;;;5.47;73.24
41712;BME280;27399;51.516;13.670;2023-04-09T00:42:34;101555.34;;;5.07;73.77
41712;BME280;27399;51.516;13.670;2023-04-09T00:45:00;101549.00;;;4.75;74.54
41712;BME280;27399;51.516;13.670;2023-04-09T00:47:26;101557.81;;;4.49;75.42
41712;BME280;27399;51.516;13.670;2023-04-09T00:49:54;101553.78;;;4.59;75.00
41712;BME280;27399;51.516;13.670;2023-04-09T00:52:20;101559.91;;;4.34;75.69
41712;BME280;27399;51.516;13.670;2023-04-09T00:54:47;101559.91;;;4.34;75.80
41712;BME280;27399;51.516;13.670;2023-04-09T00:57:14;101537.41;;;4.45;75.73
41712;BME280;27399;51.516;13.670;2023-04-09T00:59:40;101548.91;;;4.46;76.20
41712;BME280;27399;51.516;13.670;2023-04-09T01:02:06;101550.50;;;4.94;74.74
41712;BME280;27399;51.516;13.670;2023-04-09T01:04:32;101556.34;;;5.11;73.95
41712;BME280;27399;51.516;13.670;2023-04-09T01:07:06;101549.03;;;4.76;74.75
41712;BME280;27399;51.516;13.670;2023-04-09T01:09:37;101551.59;;;4.73;74.58
41712;BME280;27399;51.516;13.670;2023-04-09T01:17:22;101551.59;;;5.01;73.74
41712;BME280;27399;51.516;13.670;2023-04-09T01:20:00;101551.19;;;4.88;74.08
41712;BME280;27399;51.516;13.670;2023-04-09T01:22:54;101552.38;;;5.25;73.02
41712;BME280;27399;51.516;13.670;2023-04-09T01:28:17;101551.34;;;4.93;73.63
41712;BME280;27399;51.516;13.670;2023-04-09T01:30:47;101548.88;;;5.26;72.43
41712;BME280;27399;51.516;13.670;2023-04-09T01:33:14;101545.34;;;5.26;72.64
41712;BME280;27399;51.516;13.670;2023-04-09T01:35:45;101552.78;;;5.10;72.72
41712;BME280;27399;51.516;13.670;2023-04-09T01:38:13;101556.06;;;5.02;73.30
41712;BME280;27399;51.516;13.670;2023-04-09T01:40:39;101554.44;;;4.79;73.89
41712;BME280;27399;51.516;13.670;2023-04-09T01:43:06;101554.72;;;4.89;73.72
41712;BME280;27399;51.516;13.670;2023-04-09T01:45:33;101549.13;;;4.79;73.48
41712;BME280;27399;51.516;13.670;2023-04-09T01:47:59;101544.69;;;4.78;73.59
41712;BME280;27399;51.516;13.670;2023-04-09T01:50:26;101537.31;;;4.68;73.74
41712;BME280;27399;51.516;13.670;2023-04-09T01:52:51;101542.75;;;4.73;73.79
41712;BME280;27399;51.516;13.670;2023-04-09T01:55:17;101531.59;;;4.56;74.30
41712;BME280;27399;51.516;13.670;2023-04-09T01:57:43;101533.16;;;4.76;74.06
41712;BME280;27399;51.516;13.670;2023-04-09T02:00:09;101535.47;;;4.65;73.86
41712;BME280;27399;51.516;13.670;2023-04-09T02:02:56;101532.25;;;4.74;73.26
41712;BME280;27399;51.516;13.670;2023-04-09T02:05:24;101537.03;;;4.60;74.15
41712;BME280;27399;51.516;13.670;2023-04-09T02:07:55;101537.53;;;4.74;74.01
41712;BME280;27399;51.516;13.670;2023-04-09T02:10:26;101545.22;;;4.68;74.27
41712;BME280;27399;51.516;13.670;2023-04-09T02:12:56;101545.75;;;4.84;74.26
41712;BME280;27399;51.516;13.670;2023-04-09T02:15:23;101546.38;;;4.76;73.83
41712;BME280;27399;51.516;13.670;2023-04-09T02:17:49;101548.09;;;4.74;73.91
41712;BME280;27399;51.516;13.670;2023-04-09T02:20:18;101547.41;;;4.54;74.26
41712;BME280;27399;51.516;13.670;2023-04-09T02:22:45;101554.59;;;4.32;74.49
41712;BME280;27399;51.516;13.670;2023-04-09T02:25:11;101545.56;;;4.52;74.59
41712;BME280;27399;51.516;13.670;2023-04-09T02:27:36;101542.00;;;4.51;74.23
41712;BME280;27399;51.516;13.670;2023-04-09T02:30:02;101538.16;;;4.67;73.96
41712;BME280;27399;51.516;13.670;2023-04-09T02:32:28;101537.00;;;4.59;74.14
41712;BME280;27399;51.516;13.670;2023-04-09T02:34:54;101533.41;;;4.57;74.42
41712;BME280;27399;51.516;13.670;2023-04-09T02:37:19;101542.31;;;4.60;74.42
41712;BME280;27399;51.516;13.670;2023-04-09T02:39:45;101535.31;;;4.61;73.77
41712;BME280;27399;51.516;13.670;2023-04-09T02:42:11;101537.75;;;4.55;74.03
41712;BME280;27399;51.516;13.670;2023-04-09T02:44:36;101500.44;;;4.19;74.30
41712;BME280;27399;51.516;13.670;2023-04-09T02:47:02;101546.81;;;4.11;75.13
41712;BME280;27399;51.516;13.670;2023-04-09T02:49:27;101545.34;;;4.19;74.61
41712;BME280;27399;51.516;13.670;2023-04-09T02:51:53;101547.69;;;4.12;74.93
41712;BME280;27399;51.516;13.670;2023-04-09T02:54:18;101547.16;;;4.21;74.54
41712;BME280;27399;51.516;13.670;2023-04-09T02:56:44;101541.75;;;4.17;74.83
41712;BME280;27399;51.516;13.670;2023-04-09T02:59:10;101553.16;;;4.16;74.94
41712;BME280;27399;51.516;13.670;2023-04-09T03:01:35;101554.22;;;4.22;74.66
41712;BME280;27399;51.516;13.670;2023-04-09T03:04:01;101532.97;;;4.18;75.20
41712;BME280;27399;51.516;13.670;2023-04-09T03:06:27;101538.25;;;4.18;75.01
41712;BME280;27399;51.516;13.670;2023-04-09T03:08:52;101540.06;;;4.19;75.18
41712;BME280;27399;51.516;13.670;2023-04-09T03:11:18;101542.50;;;4.39;74.06
41712;BME280;27399;51.516;13.670;2023-04-09T03:13:44;101535.53;;;4.41;74.20
41712;BME280;27399;51.516;13.670;2023-04-09T03:16:09;101539.81;;;4.13;75.11
41712;BME280;27399;51.516;13.670;2023-04-09T03:18:35;101539.09;;;4.17;75.21
41712;BME280;27399;51.516;13.670;2023-04-09T03:21:08;101538.44;;;3.99;75.64
41712;BME280;27399;51.516;13.670;2023-04-09T03:23:34;101545.75;;;4.06;74.71
41712;BME280;27399;51.516;13.670;2023-04-09T03:26:08;101551.94;;;4.32;74.03
41712;BME280;27399;51.516;13.670;2023-04-09T03:28:34;101533.41;;;4.31;73.57
41712;BME280;27399;51.516;13.670;2023-04-09T03:30:59;101544.38;;;4.17;73.88
41712;BME280;27399;51.516;13.670;2023-04-09T03:33:25;101543.53;;;4.18;74.14
41712;BME280;27399;51.516;13.670;2023-04-09T03:35:51;101537.03;;;4.09;74.83
41712;BME280;27399;51.516;13.670;2023-04-09T03:38:16;101521.28;;;3.86;74.75
41712;BME280;27399;51.516;13.670;2023-04-09T03:40:42;101544.44;;;4.19;74.23
41712;BME280;27399;51.516;13.670;2023-04-09T03:43:08;101545.47;;;4.23;73.75
41712;BME280;27399;51.516;13.670;2023-04-09T03:45:33;101548.94;;;4.22;73.51
41712;BME280;27399;51.516;13.670;2023-04-09T03:47:59;101551.78;;;4.02;73.78
41712;BME280;27399;51.516;13.670;2023-04-09T03:50:24;101547.03;;;3.93;74.32
41712;BME280;27399;51.516;13.670;2023-04-09T03:52:50;101552.16;;;3.88;74.39
41712;BME280;27399;51.516;13.670;2023-04-09T03:55:16;101552.75;;;3.81;74.28
41712;BME280;27399;51.516;13.670;2023-04-09T03:57:41;101544.56;;;3.98;74.39
41712;BME280;27399;51.516;13.670;2023-04-09T04:00:07;101552.19;;;4.14;73.86
41712;BME280;27399;51.516;13.670;2023-04-09T04:02:33;101556.44;;;4.35;73.12
41712;BME280;27399;51.516;13.670;2023-04-09T04:04:59;101567.91;;;3.87;73.89
41712;BME280;27399;51.516;13.670;2023-04-09T04:07:25;101564.66;;;3.70;74.68
41712;BME280;27399;51.516;13.670;2023-04-09T04:09:50;101564.75;;;3.73;74.55
41712;BME280;27399;51.516;13.670;2023-04-09T04:12:16;101565.84;;;4.02;73.87
41712;BME280;27399;51.516;13.670;2023-04-09T04:14:42;101573.47;;;3.70;74.30
41712;BME280;27399;51.516;13.670;2023-04-09T04:17:07;101584.69;;;3.65;74.58
41712;BME280;27399;51.516;13.670;2023-04-09T04:19:33;101586.84;;;3.52;74.88
41712;BME280;27399;51.516;13.670;2023-04-09T04:21:58;101585.66;;;3.44;75.28
41712;BME280;27399;51.516;13.670;2023-04-09T04:24:24;101584.31;;;3.33;75.61
41712;BME280;27399;51.516;13.670;2023-04-09T04:26:50;101586.97;;;3.55;75.21
41712;BME280;27399;51.516;13.670;2023-04-09T04:29:15;101582.88;;;3.41;75.58
41712;BME280;27399;51.516;13.670;2023-04-09T04:31:41;101589.72;;;3.36;75.75
41712;BME280;27399;51.516;13.670;2023-04-09T04:34:06;101592.19;;;3.31;75.18
41712;BME280;27399;51.516;13.670;2023-04-09T04:36:32;101584.84;;;3.24;75.98
41712;BME280;27399;51.516;13.670;2023-04-09T04:38:57;101584.03;;;3.48;75.69
41712;BME280;27399;51.516;13.670;2023-04-09T04:41:23;101587.59;;;3.48;75.61
41712;BME280;27399;51.516;13.670;2023-04-09T04:43:49;101594.44;;;3.67;74.78
41712;BME280;27399;51.516;13.670;2023-04-09T04:46:14;101590.47;;;3.79;74.41
41712;BME280;27399;51.516;13.670;2023-04-09T04:48:40;101580.97;;;3.60;74.83
41712;BME280;27399;51.516;13.670;2023-04-09T04:51:05;101590.75;;;3.62;75.19
41712;BME280;27399;51.516;13.670;2023-04-09T04:53:31;101575.31;;;3.73;74.56
41712;BME280;27399;51.516;13.670;2023-04-09T04:55:57;101579.53;;;3.68;74.61
41712;BME280;27399;51.516;13.670;2023-04-09T04:58:23;101571.56;;;3.44;75.37
41712;BME280;27399;51.516;13.670;2023-04-09T05:00:49;101579.03;;;3.78;74.58
41712;BME280;27399;51.516;13.670;2023-04-09T05:03:14;101576.06;;;3.69;75.04
41712;BME280;27399;51.516;13.670;2023-04-09T05:05:40;101587.91;;;3.80;74.68
41712;BME280;27399;51.516;13.670;2023-04-09T05:08:06;101578.91;;;3.75;74.75
41712;BME280;27399;51.516;13.670;2023-04-09T05:10:32;101579.03;;;3.78;75.29
41712;BME280;27399;51.516;13.670;2023-04-09T05:12:57;101585.00;;;3.97;75.15
41712;BME280;27399;51.516;13.670;2023-04-09T05:15:23;101575.81;;;3.87;75.43
41712;BME280;27399;51.516;13.670;2023-04-09T05:17:48;101580.00;;;4.05;75.82
41712;BME280;27399;51.516;13.670;2023-04-09T05:20:14;101574.91;;;4.09;76.28
41712;BME280;27399;51.516;13.670;2023-04-09T05:22:40;101580.28;;;4.37;75.13
41712;BME280;27399;51.516;13.670;2023-04-09T05:25:06;101583.28;;;4.47;74.79
41712;BME280;27399;51.516;13.670;2023-04-09T05:27:32;101582.63;;;4.29;75.55
41712;BME280;27399;51.516;13.670;2023-04-09T05:29:57;101579.59;;;4.18;76.47
41712;BME280;27399;51.516;13.670;2023-04-09T05:32:23;101572.81;;;4.25;76.91
41712;BME280;27399;51.516;13.670;2023-04-09T05:34:52;101573.63;;;4.24;76.85
41712;BME280;27399;51.516;13.670;2023-04-09T05:37:17;101579.53;;;4.41;77.00
41712;BME280;27399;51.516;13.670;2023-04-09T05:39:43;101582.16;;;4.41;77.91
41712;BME280;27399;51.516;13.670;2023-04-09T05:42:08;101574.03;;;4.60;77.48
41712;BME280;27399;51.516;13.670;2023-04-09T05:44:34;101580.34;;;4.64;77.95
41712;BME280;27399;51.516;13.670;2023-04-09T05:47:00;101578.09;;;4.76;78.05
41712;BME280;27399;51.516;13.670;2023-04-09T05:49:26;101579.38;;;4.88;77.94
41712;BME280;27399;51.516;13.670;2023-04-09T05:51:51;101577.06;;;4.97;77.19
41712;BME280;27399;51.516;13.670;2023-04-09T05:54:17;101577.53;;;5.12;77.35
41712;BME280;27399;51.516;13.670;2023-04-09T05:56:43;101582.16;;;5.20;77.51
41712;BME280;27399;51.516;13.670;2023-04-09T05:59:08;101582.06;;;5.44;76.92
41712;BME280;27399;51.516;13.670;2023-04-09T06:01:34;101581.59;;;5.30;78.00
41712;BME280;27399;51.516;13.670;2023-04-09T06:03:59;101576.91;;;5.49;77.58
41712;BME280;27399;51.516;13.670;2023-04-09T06:06:25;101579.63;;;5.52;77.95
41712;BME280;27399;51.516;13.670;2023-04-09T06:08:51;101576.63;;;5.68;77.87
41712;BME280;27399;51.516;13.670;2023-04-09T06:11:17;101578.28;;;5.65;78.43
41712;BME280;27399;51.516;13.670;2023-04-09T06:13:42;101573.56;;;5.85;77.85
41712;BME280;27399;51.516;13.670;2023-04-09T06:16:08;101568.53;;;5.94;78.05
41712;BME280;27399;51.516;13.670;2023-04-09T06:18:35;101566.34;;;5.79;79.08
41712;BME280;27399;51.516;13.670;2023-04-09T06:21:06;101568.53;;;5.94;78.84
41712;BME280;27399;51.516;13.670;2023-04-09T06:23:33;101565.66;;;6.15;78.81
41712;BME280;27399;51.516;13.670;2023-04-09T06:25:59;101572.44;;;6.05;80.09
41712;BME280;27399;51.516;13.670;2023-04-09T06:28:27;101562.56;;;6.32;79.21
41712;BME280;27399;51.516;13.670;2023-04-09T06:30:52;101564.31;;;6.31;79.71
41712;BME280;27399;51.516;13.670;2023-04-09T06:33:20;101563.63;;;6.39;79.90
41712;BME280;27399;51.516;13.670;2023-04-09T06:35:45;101573.53;;;6.46;80.30
41712;BME280;27399;51.516;13.670;2023-04-09T06:38:11;101567.56;;;6.53;79.63
41712;BME280;27399;51.516;13.670;2023-04-09T06:40:37;101559.94;;;6.65;79.62
41712;BME280;27399;51.516;13.670;2023-04-09T06:43:03;101546.97;;;6.43;80.08
41712;BME280;27399;51.516;13.670;2023-04-09T06:45:30;101549.47;;;6.72;79.10
41712;BME280;27399;51.516;13.670;2023-04-09T06:47:57;101567.53;;;6.88;79.18
41712;BME280;27399;51.516;13.670;2023-04-09T06:50:22;101574.00;;;7.00;78.41
41712;BME280;27399;51.516;13.670;2023-04-09T06:52:48;101574.13;;;7.04;78.86
41712;BME280;27399;51.516;13.670;2023-04-09T06:55:14;101575.25;;;7.14;78.25
41712;BME280;27399;51.516;13.670;2023-04-09T06:57:40;101579.56;;;7.09;77.80
41712;BME280;27399;51.516;13.670;2023-04-09T07:00:06;101586.09;;;7.23;77.71
41712;BME280;27399;51.516;13.670;2023-04-09T07:02:33;101598.28;;;7.15;78.16
41712;BME280;27399;51.516;13.670;2023-04-09T07:05:02;101594.44;;;7.39;78.52
41712;BME280;27399;51.516;13.670;2023-04-09T07:07:28;101598.44;;;7.59;77.52
41712;BME280;27399;51.516;13.670;2023-04-09T07:09:54;101602.06;;;7.65;76.84
41712;BME280;27399;51.516;13.670;2023-04-09T07:12:30;101598.28;;;7.53;78.76
41712;BME280;27399;51.516;13.670;2023-04-09T07:15:00;101588.59;;;7.55;78.46
41712;BME280;27399;51.516;13.670;2023-04-09T07:17:26;101600.94;;;7.95;76.37
41712;BME280;27399;51.516;13.670;2023-04-09T07:19:55;101608.19;;;8.02;76.52
41712;BME280;27399;51.516;13.670;2023-04-09T07:22:21;101605.00;;;8.18;76.70
41712;BME280;27399;51.516;13.670;2023-04-09T07:24:48;101608.84;;;8.34;75.81
41712;BME280;27399;51.516;13.670;2023-04-09T07:27:28;101607.97;;;8.35;75.22
41712;BME280;27399;51.516;13.670;2023-04-09T07:29:55;101610.72;;;8.40;75.81
41712;BME280;27399;51.516;13.670;2023-04-09T07:32:21;101611.16;;;8.60;74.19
41712;BME280;27399;51.516;13.670;2023-04-09T07:34:46;101604.81;;;8.53;74.43
41712;BME280;27399;51.516;13.670;2023-04-09T07:37:12;101605.66;;;8.51;74.71
41712;BME280;27399;51.516;13.670;2023-04-09T07:39:37;101596.75;;;8.49;75.70
41712;BME280;27399;51.516;13.670;2023-04-09T07:42:04;101597.16;;;8.71;74.37
41712;BME280;27399;51.516;13.670;2023-04-09T07:44:36;101592.22;;;8.94;74.16
41712;BME280;27399;51.516;13.670;2023-04-09T07:47:06;101593.41;;;9.11;72.67
41712;BME280;27399;51.516;13.670;2023-04-09T07:49:32;101594.38;;;9.15;73.44
41712;BME280;27399;51.516;13.670;2023-04-09T07:51:58;101590.88;;;9.21;73.89
41712;BME280;27399;51.516;13.670;2023-04-09T07:54:25;101588.38;;;9.30;72.56
41712;BME280;27399;51.516;13.670;2023-04-09T07:56:52;101579.69;;;9.43;72.30
41712;BME280;27399;51.516;13.670;2023-04-09T07:59:20;101582.47;;;9.53;71.68
41712;BME280;27399;51.516;13.670;2023-04-09T08:01:45;101577.28;;;9.60;71.44
41712;BME280;27399;51.516;13.670;2023-04-09T08:04:11;101584.41;;;9.63;70.75
41712;BME280;27399;51.516;13.670;2023-04-09T08:06:38;101580.97;;;9.70;71.77
41712;BME280;27399;51.516;13.670;2023-04-09T08:09:03;101577.66;;;9.88;70.62
41712;BME280;27399;51.516;13.670;2023-04-09T08:11:29;101566.19;;;9.94;70.66
41712;BME280;27399;51.516;13.670;2023-04-09T08:13:55;101581.16;;;9.84;69.54
41712;BME280;27399;51.516;13.670;2023-04-09T08:16:21;101581.47;;;10.11;70.04
41712;BME280;27399;51.516;13.670;2023-04-09T08:18:54;101580.50;;;10.05;70.11
41712;BME280;27399;51.516;13.670;2023-04-09T08:21:20;101586.91;;;10.20;68.94
41712;BME280;27399;51.516;13.670;2023-04-09T08:23:46;101582.50;;;10.23;68.79
41712;BME280;27399;51.516;13.670;2023-04-09T08:26:11;101582.56;;;10.28;69.31
41712;BME280;27399;51.516;13.670;2023-04-09T08:28:37;101577.50;;;10.48;68.10
41712;BME280;27399;51.516;13.670;2023-04-09T08:31:03;101585.31;;;10.34;69.78
41712;BME280;27399;51.516;13.670;2023-04-09T08:33:28;101587.47;;;10.68;69.17
41712;BME280;27399;51.516;13.670;2023-04-09T08:35:55;101586.59;;;10.70;68.65
41712;BME280;27399;51.516;13.670;2023-04-09T08:38:20;101597.38;;;10.83;68.35
41712;BME280;27399;51.516;13.670;2023-04-09T08:40:46;101598.34;;;10.88;67.61
41712;BME280;27399;51.516;13.670;2023-04-09T08:43:14;101598.31;;;10.87;69.13
41712;BME280;27399;51.516;13.670;2023-04-09T08:45:41;101592.19;;;10.98;67.05
41712;BME280;27399;51.516;13.670;2023-04-09T08:48:09;101595.75;;;11.00;67.32
41712;BME280;27399;51.516;13.670;2023-04-09T08:50:35;101590.47;;;11.07;66.08
41712;BME280;27399;51.516;13.670;2023-04-09T08:53:02;101584.22;;;11.05;66.55
41712;BME280;27399;51.516;13.670;2023-04-09T08:55:29;101583.41;;;11.13;65.48
41712;BME280;27399;51.516;13.670;2023-04-09T08:57:55;101585.25;;;11.22;66.00
41712;BME280;27399;51.516;13.670;2023-04-09T09:00:22;101571.81;;;11.11;65.94
41712;BME280;27399;51.516;13.670;2023-04-09T09:03:09;101585.38;;;11.38;65.98
41712;BME280;27399;51.516;13.670;2023-04-09T09:05:40;101589.00;;;11.49;66.33
41712;BME280;27399;51.516;13.670;2023-04-09T09:08:10;101597.06;;;11.57;65.41
41712;BME280;27399;51.516;13.670;2023-04-09T09:10:41;101601.72;;;11.93;64.91
41712;BME280;27399;51.516;13.670;2023-04-09T09:13:17;101593.81;;;12.18;64.74
41712;BME280;27399;51.516;13.670;2023-04-09T09:15:43;101587.66;;;12.38;62.91
41712;BME280;27399;51.516;13.670;2023-04-09T09:18:08;101577.91;;;12.68;63.45
41712;BME280;27399;51.516;13.670;2023-04-09T09:20:34;101576.09;;;12.64;62.48
41712;BME280;27399;51.516;13.670;2023-04-09T09:23:01;101583.25;;;12.83;62.19
41712;BME280;27399;51.516;13.670;2023-04-09T09:25:27;101584.16;;;13.10;63.28
41712;BME280;27399;51.516;13.670;2023-04-09T09:28:14;101589.53;;;13.23;62.44
41712;BME280;27399;51.516;13.670;2023-04-09T09:30:39;101590.41;;;13.22;61.66
41712;BME280;27399;51.516;13.670;2023-04-09T09:33:08;101590.41;;;13.18;61.10
41712;BME280;27399;51.516;13.670;2023-04-09T09:35:51;101587.69;;;13.34;61.79
41712;BME280;27399;51.516;13.670;2023-04-09T09:38:18;101577.91;;;13.44;61.40
41712;BME280;27399;51.516;13.670;2023-04-09T09:40:44;101576.13;;;13.46;60.88
41712;BME280;27399;51.516;13.670;2023-04-09T09:43:11;101569.84;;;13.31;60.64
41712;BME280;27399;51.516;13.670;2023-04-09T09:45:37;101571.66;;;13.12;60.92
41712;BME280;27399;51.516;13.670;2023-04-09T09:48:04;101565.41;;;13.24;60.39
41712;BME280;27399;51.516;13.670;2023-04-09T09:50:30;101568.09;;;13.23;61.89
41712;BME280;27399;51.516;13.670;2023-04-09T09:53:04;101561.84;;;13.25;62.06
41712;BME280;27399;51.516;13.670;2023-04-09T09:55:36;101555.56;;;13.28;61.99
41712;BME280;27399;51.516;13.670;2023-04-09T09:58:14;101559.13;;;13.19;61.71
41712;BME280;27399;51.516;13.670;2023-04-09T10:00:41;101560.03;;;13.13;63.58
41712;BME280;27399;51.516;13.670;2023-04-09T10:03:22;101555.59;;;13.11;63.15
41712;BME280;27399;51.516;13.670;2023-04-09T10:05:49;101567.19;;;13.27;62.68
41712;BME280;27399;51.516;13.670;2023-04-09T10:08:16;101553.78;;;13.41;61.57
41712;BME280;27399;51.516;13.670;2023-04-09T10:10:42;101559.13;;;13.48;62.03
41712;BME280;27399;51.516;13.670;2023-04-09T10:13:14;101561.81;;;13.47;62.11
41712;BME280;27399;51.516;13.670;2023-04-09T10:15:43;101555.56;;;13.46;62.12
41712;BME280;27399;51.516;13.670;2023-04-09T10:18:09;101546.59;;;13.52;62.49
41712;BME280;27399;51.516;13.670;2023-04-09T10:20:48;101551.94;;;13.60;60.46
41712;BME280;27399;51.516;13.670;2023-04-09T10:23:23;101551.03;;;13.62;61.78
41712;BME280;27399;51.516;13.670;2023-04-09T10:25:52;101544.81;;;13.56;61.73
41712;BME280;27399;51.516;13.670;2023-04-09T10:28:18;101553.78;;;13.52;61.59
41712;BME280;27399;51.516;13.670;2023-04-09T10:30:43;101545.69;;;13.55;61.29
41712;BME280;27399;51.516;13.670;2023-04-09T10:33:15;101543.94;;;13.54;62.29
41712;BME280;27399;51.516;13.670;2023-04-09T10:35:46;101532.31;;;13.48;62.30
41712;BME280;27399;51.516;13.670;2023-04-09T10:38:16;101543.03;;;13.59;62.07
41712;BME280;27399;51.516;13.670;2023-04-09T10:40:46;101534.06;;;13.67;61.16
41712;BME280;27399;51.516;13.670;2023-04-09T10:43:14;101534.06;;;13.63;62.40
41712;BME280;27399;51.516;13.670;2023-04-09T10:45:44;101526.91;;;13.73;61.16
41712;BME280;27399;51.516;13.670;2023-04-09T10:48:13;101529.56;;;13.78;62.20
41712;BME280;27399;51.516;13.670;2023-04-09T10:50:42;101530.44;;;13.78;62.08
41712;BME280;27399;51.516;13.670;2023-04-09T10:53:24;101526.91;;;13.70;61.82
41712;BME280;27399;51.516;13.670;2023-04-09T10:55:51;101543.03;;;13.61;62.49
41712;BME280;27399;51.516;13.670;2023-04-09T10:58:18;101525.09;;;13.75;62.44
41712;BME280;27399;51.516;13.670;2023-04-09T11:00:48;101518.78;;;13.84;62.22
41712;BME280;27399;51.516;13.670;2023-04-09T11:03:27;101508.97;;;13.78;61.60
41712;BME280;27399;51.516;13.670;2023-04-09T11:06:03;101526.03;;;13.62;61.54
41712;BME280;27399;51.516;13.670;2023-04-09T11:08:35;101522.50;;;13.52;61.35
41712;BME280;27399;51.516;13.670;2023-04-09T11:11:02;101522.38;;;13.85;61.24
41712;BME280;27399;51.516;13.670;2023-04-09T11:13:29;101522.34;;;13.89;61.06
41712;BME280;27399;51.516;13.670;2023-04-09T11:15:55;101518.69;;;14.03;61.81
41712;BME280;27399;51.516;13.670;2023-04-09T11:18:26;101523.19;;;14.05;60.78
41712;BME280;27399;51.516;13.670;2023-04-09T11:21:00;101514.34;;;13.82;61.06
41712;BME280;27399;51.516;13.670;2023-04-09T11:23:26;101517.00;;;13.86;60.94
41712;BME280;27399;51.516;13.670;2023-04-09T11:25:53;101516.09;;;13.92;60.85
41712;BME280;27399;51.516;13.670;2023-04-09T11:28:19;101516.94;;;13.95;60.88
41712;BME280;27399;51.516;13.670;2023-04-09T11:30:45;101515.16;;;13.94;60.69
41712;BME280;27399;51.516;13.670;2023-04-09T11:33:11;101514.34;;;13.82;60.57
41712;BME280;27399;51.516;13.670;2023-04-09T11:35:37;101516.00;;;14.03;60.84
41712;BME280;27399;51.516;13.670;2023-04-09T11:38:07;101515.13;;;14.04;61.19
41712;BME280;27399;51.516;13.670;2023-04-09T11:40:33;101511.41;;;14.28;59.78
41712;BME280;27399;51.516;13.670;2023-04-09T11:42:59;101506.88;;;14.38;60.27
41712;BME280;27399;51.516;13.670;2023-04-09T11:45:27;101511.34;;;14.36;60.24
41712;BME280;27399;51.516;13.670;2023-04-09T11:47:53;101501.41;;;14.53;59.52
41712;BME280;27399;51.516;13.670;2023-04-09T11:50:20;101503.16;;;14.56;58.76
41712;BME280;27399;51.516;13.670;2023-04-09T11:52:46;101496.88;;;14.55;58.49
41712;BME280;27399;51.516;13.670;2023-04-09T11:55:22;101491.47;;;14.62;59.33
41712;BME280;27399;51.516;13.670;2023-04-09T11:57:50;101497.97;;;14.31;58.76
41712;BME280;27399;51.516;13.670;2023-04-09T12:00:16;101492.50;;;14.47;57.79
41712;BME280;27399;51.516;13.670;2023-04-09T12:02:44;101502.16;;;14.74;59.33
41712;BME280;27399;51.516;13.670;2023-04-09T12:05:31;101497.66;;;14.75;58.71
41712;BME280;27399;51.516;13.670;2023-04-09T12:07:59;101499.41;;;14.80;57.73
41712;BME280;27399;51.516;13.670;2023-04-09T12:10:29;101500.38;;;14.71;58.51
41712;BME280;27399;51.516;13.670;2023-04-09T12:13:06;101494.84;;;14.88;58.21
41712;BME280;27399;51.516;13.670;2023-04-09T12:15:35;101494.75;;;15.01;58.55
41712;BME280;27399;51.516;13.670;2023-04-09T12:18:01;101483.06;;;15.03;57.53
41712;BME280;27399;51.516;13.670;2023-04-09T12:20:35;101493.75;;;15.10;57.32
41712;BME280;27399;51.516;13.670;2023-04-09T12:23:04;101498.13;;;15.18;56.46
41712;BME280;27399;51.516;13.670;2023-04-09T12:25:31;101492.81;;;15.15;57.78
41712;BME280;27399;51.516;13.670;2023-04-09T12:27:57;101490.09;;;15.17;56.66
41712;BME280;27399;51.516;13.670;2023-04-09T12:30:24;101491.81;;;15.26;58.56
41712;BME280;27399;51.516;13.670;2023-04-09T12:32:51;101490.97;;;15.19;57.68
41712;BME280;27399;51.516;13.670;2023-04-09T12:35:16;101493.53;;;15.31;56.51
41712;BME280;27399;51.516;13.670;2023-04-09T12:37:43;101487.44;;;15.15;57.50
41712;BME280;27399;51.516;13.670;2023-04-09T12:40:09;101486.47;;;15.21;57.10
41712;BME280;27399;51.516;13.670;2023-04-09T12:42:35;101488.06;;;15.41;57.89
41712;BME280;27399;51.516;13.670;2023-04-09T12:45:00;101488.97;;;15.40;56.95
41712;BME280;27399;51.516;13.670;2023-04-09T12:47:26;101490.00;;;15.28;56.61
41712;BME280;27399;51.516;13.670;2023-04-09T12:49:53;101485.41;;;15.39;57.74
41712;BME280;27399;51.516;13.670;2023-04-09T12:52:18;101489.88;;;15.36;57.90
41712;BME280;27399;51.516;13.670;2023-04-09T12:54:44;101481.88;;;15.32;58.29